Terminal Aerodrome Forecast
Issued by NWS

Home | Current Version | Previous Version | Graphics & Text | Print | Product List | Glossary On
Versions: 1 2 3 4 5 6 7 8 9 10 11 12 13 14 15 16 17 18
000
FTUS43 KICT 151100
TAFSLN
TAF
KSLN 151137Z 1512/1612 19010KT P6SM BKN080
     FM151400 36013KT P6SM VCSH SCT015 BKN030
      TEMPO 1514/1518 BKN018
     FM152000 04014KT P6SM BKN040
     FM160400 07007KT P6SM SCT020 BKN080=

USA.gov is the U.S. government's official web portal to all federal, state and local government web resources and services.